Time;durP1;ratioP1;P1;durP2;ratioP2;P2;SDS_P1;SDS_P2;PMS_P1;PMS_P2;Temp;Humidity;BMP_temperature;BMP_pressure;BME280_temperature;BME280_humidity;BME280_pressure;Samples;Min_cycle;Max_cycle;Signal;HPM_P1;HPM_P2
2020/12/06 00:03:14;;;;;;;29.42;19.30;;;;;;;3.86;83.76;97212.06;4974652;28;20207;-86
2020/12/06 00:05:40;;;;;;;25.48;17.08;;;;;;;3.85;83.55;97200.56;4966644;28;20246;-87
2020/12/06 00:08:14;;;;;;;31.13;21.27;;;;;;;3.86;83.48;97228.84;4943451;28;20227;-85
2020/12/06 00:10:43;;;;;;;29.17;19.70;;;;;;;3.83;83.57;97229.09;4948106;28;20251;-85
2020/12/06 00:13:12;;;;;;;33.33;20.60;;;;;;;3.95;83.66;97225.56;4961601;28;20262;-85
2020/12/06 00:15:46;;;;;;;32.92;20.05;;;;;;;4.01;83.34;97222.50;4959117;28;20235;-87
2020/12/06 00:18:35;;;;;;;32.22;21.15;;;;;;;4.02;82.93;97244.59;4942413;28;20216;-85
2020/12/06 00:21:38;;;;;;;29.27;19.50;;;;;;;4.00;83.12;97252.69;4954412;28;20311;-86
2020/12/06 00:24:11;;;;;;;28.55;18.80;;;;;;;4.05;82.75;97247.88;4978354;28;20192;-85
2020/12/06 00:26:38;;;;;;;25.15;17.23;;;;;;;4.12;82.69;97257.13;4916794;28;20232;-88
2020/12/06 00:29:12;;;;;;;29.38;19.75;;;;;;;4.25;82.30;97265.13;4857982;28;20249;-86
2020/12/06 00:31:48;;;;;;;25.73;17.50;;;;;;;4.21;81.98;97245.88;4963347;28;20227;-85
2020/12/06 00:34:14;;;;;;;32.58;21.08;;;;;;;4.24;81.62;97223.53;4953147;28;20239;-85
2020/12/06 00:36:41;;;;;;;28.08;17.67;;;;;;;4.24;81.68;97216.38;4955244;28;20197;-85
2020/12/06 00:39:07;;;;;;;30.05;18.27;;;;;;;4.17;81.73;97217.78;4942745;28;20216;-87
2020/12/06 00:41:34;;;;;;;28.83;19.10;;;;;;;4.16;81.58;97232.03;4946656;28;20219;-86
2020/12/06 00:44:02;;;;;;;26.92;17.33;;;;;;;4.10;82.19;97253.75;4968899;28;20258;-87
2020/12/06 00:46:32;;;;;;;30.10;18.52;;;;;;;4.06;82.35;97236.31;4968105;28;20845;-87
2020/12/06 00:49:00;;;;;;;28.65;19.30;;;;;;;4.09;82.46;97212.16;4981322;28;20697;-87
2020/12/06 00:51:26;;;;;;;28.70;18.90;;;;;;;4.01;82.48;97211.84;4955511;28;21115;-86
2020/12/06 00:53:52;;;;;;;30.40;19.20;;;;;;;4.04;82.46;97232.91;4957315;28;20640;-86
2020/12/06 00:56:20;;;;;;;31.50;19.15;;;;;;;4.10;82.63;97226.31;4942964;28;20313;-86
2020/12/06 00:58:49;;;;;;;31.80;19.27;;;;;;;4.05;82.34;97208.00;4984318;28;20207;-87
2020/12/06 01:01:18;;;;;;;32.28;19.88;;;;;;;4.11;82.07;97218.22;4940807;28;20242;-86
2020/12/06 01:03:45;;;;;;;30.10;18.48;;;;;;;4.03;82.27;97241.84;4942354;28;23243;-85
2020/12/06 01:06:17;;;;;;;31.92;19.75;;;;;;;4.05;82.42;97247.88;4957719;28;20206;-85
2020/12/06 01:08:43;;;;;;;33.70;19.85;;;;;;;4.00;82.31;97251.84;4957075;28;20231;-85
2020/12/06 01:11:12;;;;;;;32.88;21.10;;;;;;;4.02;82.46;97239.28;4954295;28;20266;-85
2020/12/06 01:13:50;;;;;;;33.15;21.48;;;;;;;4.06;82.73;97220.38;4898411;28;20240;-84
2020/12/06 01:16:50;;;;;;;35.25;20.20;;;;;;;4.05;82.58;97231.94;4875715;28;20293;-84
2020/12/06 01:19:18;;;;;;;35.10;21.40;;;;;;;4.01;82.89;97221.63;4932271;28;20231;-84
2020/12/06 01:22:31;;;;;;;32.20;20.73;;;;;;;3.96;83.38;97207.78;4904918;28;20196;-83
2020/12/06 01:25:45;;;;;;;39.70;21.60;;;;;;;4.05;83.09;97223.13;4869626;28;20768;-83
2020/12/06 01:28:38;;;;;;;34.17;20.10;;;;;;;4.06;83.72;97238.97;4941379;28;20210;-82
2020/12/06 01:31:16;;;;;;;37.97;21.90;;;;;;;4.08;83.84;97249.50;4905598;28;20249;-83
2020/12/06 01:33:55;;;;;;;35.78;21.60;;;;;;;4.17;84.32;97238.22;4909619;28;20235;-82
2020/12/06 01:36:22;;;;;;;38.88;22.05;;;;;;;4.12;83.93;97237.69;4946374;28;20214;-81
2020/12/06 01:38:57;;;;;;;31.92;21.38;;;;;;;4.16;84.20;97242.69;5000490;28;20202;-82
2020/12/06 01:46:34;;;;;;;39.25;22.42;;;;;;;4.23;84.02;97267.88;4983952;28;20203;-83
2020/12/06 01:50:35;;;;;;;41.15;21.60;;;;;;;4.24;84.50;97271.41;4898393;28;20233;-82
2020/12/06 01:54:03;;;;;;;;;;;;;;;;;;;;;
2020/12/06 01:57:18;;;;;;;36.85;21.85;;;;;;;4.22;84.63;97284.81;4868125;28;20224;-83
2020/12/06 02:09:49;;;;;;;;;;;;;;;;;;;;;
2020/12/06 02:17:13;;;;;;;40.20;23.50;;;;;;;4.25;84.87;97258.00;4845063;28;20250;-82
2020/12/06 02:32:51;;;;;;;;;;;;;;;;;;;;;
2020/12/06 02:36:46;;;;;;;;;;;;;;;;;;;;;
2020/12/06 02:40:49;;;;;;;;;;;;;;;;;;;;;
2020/12/06 02:44:11;;;;;;;37.15;21.38;;;;;;;4.28;85.66;97240.97;4805986;29;20209;-84
2020/12/06 02:59:22;;;;;;;36.95;20.60;;;;;;;4.24;87.01;97219.06;4821228;29;20243;-83
2020/12/06 03:02:38;;;;;;;41.97;23.45;;;;;;;4.30;86.86;97200.00;4839873;29;20278;-84
2020/12/06 03:10:47;;;;;;;35.05;21.25;;;;;;;4.11;87.33;97214.72;4779237;29;20291;-86
2020/12/06 03:14:11;;;;;;;32.28;19.27;;;;;;;4.15;87.17;97206.41;4709805;29;20237;-85
2020/12/06 03:17:53;;;;;;;;;;;;;;;;;;;;;
2020/12/06 03:20:44;;;;;;;35.78;20.08;;;;;;;4.10;88.21;97205.88;4741174;29;22278;-85
2020/12/06 03:23:29;;;;;;;32.63;19.15;;;;;;;4.11;88.48;97207.56;4780652;29;20288;-85
2020/12/06 03:26:15;;;;;;;32.05;19.67;;;;;;;4.13;88.62;97216.31;4840677;29;20246;-84
2020/12/06 03:29:40;;;;;;;33.55;19.58;;;;;;;4.12;88.78;97225.22;4843655;29;20227;-85
2020/12/06 03:33:27;;;;;;;28.15;17.90;;;;;;;4.06;88.68;97235.47;4735512;30;20268;-86
2020/12/06 03:36:34;;;;;;;28.83;18.20;;;;;;;4.13;88.84;97226.09;4748426;30;20241;-85
2020/12/06 03:39:48;;;;;;;27.33;17.33;;;;;;;4.05;88.16;97218.66;4706814;30;20529;-83
2020/12/06 03:47:28;;;;;;;33.55;19.80;;;;;;;4.13;89.02;97221.63;4745176;30;20211;-84
2020/12/06 03:55:49;;;;;;;32.67;19.85;;;;;;;4.14;89.34;97186.09;4760705;29;20244;-81
2020/12/06 03:59:54;;;;;;;;;;;;;;;;;;;;;
2020/12/06 04:04:19;;;;;;;;;;;;;;;;;;;;;
2020/12/06 04:08:34;;;;;;;;;;;;;;;;;;;;;
2020/12/06 04:15:36;;;;;;;35.13;19.27;;;;;;;4.61;86.50;97159.59;4797972;29;20241;-82
2020/12/06 04:18:02;;;;;;;30.00;18.00;;;;;;;4.64;86.02;97164.69;4915247;29;20190;-83
2020/12/06 04:20:56;;;;;;;35.63;21.83;;;;;;;4.72;85.08;97175.63;4922062;29;20233;-84
2020/12/06 04:24:04;;;;;;;29.40;18.60;;;;;;;4.54;84.18;97197.38;4898492;29;20225;-81
2020/12/06 04:27:12;;;;;;;33.40;20.60;;;;;;;4.49;85.18;97205.72;4834846;28;20299;-84
2020/12/06 04:29:40;;;;;;;33.05;19.30;;;;;;;4.39;85.18;97212.66;4959088;28;20227;-84
2020/12/06 04:32:06;;;;;;;33.55;19.65;;;;;;;4.36;86.35;97210.19;4950246;28;20227;-85
2020/12/06 04:34:48;;;;;;;38.95;22.40;;;;;;;4.30;86.51;97215.13;4966069;28;20220;-85
2020/12/06 04:45:24;;;;;;;34.08;19.13;;;;;;;4.39;87.36;97199.34;4888312;28;20222;-85
2020/12/06 04:47:56;;;;;;;35.42;20.40;;;;;;;4.31;87.63;97184.91;4945235;29;20238;-84
2020/12/06 04:50:31;;;;;;;32.70;19.15;;;;;;;4.22;87.77;97186.41;4957537;28;20246;-85
2020/12/06 04:52:58;;;;;;;37.47;20.20;;;;;;;4.02;87.82;97180.78;4965494;28;20705;-84
2020/12/06 04:55:27;;;;;;;34.47;19.88;;;;;;;4.03;88.25;97191.31;4924870;29;20224;-85
2020/12/06 04:57:55;;;;;;;38.03;21.20;;;;;;;3.95;88.79;97191.00;4994300;28;20233;-86
2020/12/06 05:00:31;;;;;;;34.47;19.38;;;;;;;4.00;88.94;97185.38;5011568;28;20217;-83
2020/12/06 05:05:53;;;;;;;33.47;20.40;;;;;;;4.08;89.08;97186.53;5016463;28;20225;-85
2020/12/06 05:08:21;;;;;;;32.67;18.80;;;;;;;4.12;88.94;97182.69;5002097;28;20232;-85
2020/12/06 05:10:48;;;;;;;31.83;18.23;;;;;;;4.08;88.31;97170.59;5003778;28;20748;-84
2020/12/06 05:13:16;;;;;;;35.30;18.80;;;;;;;4.04;88.47;97163.75;5010939;28;20256;-83
2020/12/06 05:15:44;;;;;;;32.42;18.77;;;;;;;4.13;88.81;97168.44;5003096;28;20209;-82
2020/12/06 05:18:10;;;;;;;29.20;18.27;;;;;;;4.34;87.10;97161.59;5019569;28;20458;-84
2020/12/06 05:20:36;;;;;;;30.65;18.58;;;;;;;4.51;86.60;97163.91;5009219;28;20309;-84
2020/12/06 05:23:03;;;;;;;29.77;16.92;;;;;;;4.56;85.32;97158.22;5029770;28;20289;-83
2020/12/06 05:25:29;;;;;;;29.05;17.30;;;;;;;4.66;85.01;97151.25;5002029;28;20220;-84
2020/12/06 05:27:55;;;;;;;29.75;17.05;;;;;;;4.62;85.03;97160.44;4994881;28;20229;-84
2020/12/06 05:30:23;;;;;;;25.52;16.13;;;;;;;4.62;83.93;97155.94;5016851;28;20249;-84
2020/12/06 05:32:50;;;;;;;31.50;17.95;;;;;;;4.59;84.49;97172.16;5002893;28;20231;-84
2020/12/06 05:35:18;;;;;;;30.67;17.67;;;;;;;4.57;84.96;97187.38;5020875;28;20216;-83
2020/12/06 05:37:44;;;;;;;32.92;18.42;;;;;;;4.44;85.62;97181.22;5010086;28;20244;-85
2020/12/06 05:40:16;;;;;;;31.02;17.88;;;;;;;4.32;86.34;97175.97;5017044;28;20300;-83
2020/12/06 05:42:44;;;;;;;35.22;16.80;;;;;;;4.33;86.39;97159.91;5017394;28;20238;-81
2020/12/06 05:45:11;;;;;;;32.55;17.52;;;;;;;4.25;87.25;97151.59;5006851;28;20611;-84
2020/12/06 05:47:38;;;;;;;29.25;17.90;;;;;;;4.11;87.00;97137.59;5012330;28;20241;-84
2020/12/06 05:50:06;;;;;;;30.45;18.20;;;;;;;4.13;87.53;97141.88;4991924;28;20241;-82
2020/12/06 05:52:34;;;;;;;28.13;16.23;;;;;;;4.10;87.84;97136.75;5012639;28;20332;-83
2020/12/06 05:55:03;;;;;;;36.42;20.73;;;;;;;4.08;88.05;97135.16;5013234;28;20236;-83
2020/12/06 05:57:43;;;;;;;31.70;17.38;;;;;;;4.34;86.21;97145.63;5032052;28;20200;-84
2020/12/06 06:00:10;;;;;;;29.30;17.30;;;;;;;4.24;86.16;97157.03;5015589;28;20231;-85
2020/12/06 06:02:40;;;;;;;32.00;18.98;;;;;;;4.10;86.43;97159.84;5027994;28;20270;-83
2020/12/06 06:05:07;;;;;;;28.60;18.08;;;;;;;4.18;87.18;97144.19;5014782;28;20237;-84
2020/12/06 06:07:35;;;;;;;30.58;17.85;;;;;;;4.36;86.69;97125.06;5012590;28;20452;-84
2020/12/06 06:10:05;;;;;;;31.50;20.08;;;;;;;4.32;86.32;97123.63;5015331;28;20225;-83
2020/12/06 06:12:33;;;;;;;33.30;17.85;;;;;;;4.22;87.04;97125.22;5023471;28;20451;-85
2020/12/06 06:15:01;;;;;;;32.97;18.98;;;;;;;4.25;86.87;97122.34;5013916;28;20224;-85
2020/12/06 06:17:30;;;;;;;30.73;18.35;;;;;;;4.16;86.93;97111.53;5010799;28;20286;-84
2020/12/06 06:19:58;;;;;;;32.20;18.75;;;;;;;4.04;87.05;97102.63;5014869;28;20310;-85
2020/12/06 06:22:36;;;;;;;30.38;17.67;;;;;;;4.08;87.18;97128.03;5021576;28;20225;-83
2020/12/06 06:25:04;;;;;;;32.17;18.08;;;;;;;4.38;85.58;97120.50;5004135;28;20252;-83
2020/12/06 06:27:35;;;;;;;29.08;16.20;;;;;;;4.25;85.48;97132.97;4995751;28;20194;-84
2020/12/06 06:30:09;;;;;;;31.42;16.95;;;;;;;4.19;86.32;97136.09;5024079;28;20242;-84
2020/12/06 06:32:37;;;;;;;29.92;18.02;;;;;;;4.30;86.53;97145.97;5016012;28;20228;-85
2020/12/06 06:35:05;;;;;;;28.60;16.95;;;;;;;4.42;85.57;97147.75;5007957;28;20279;-81
2020/12/06 06:37:32;;;;;;;30.17;17.55;;;;;;;4.59;84.33;97148.22;5024929;28;20217;-83
2020/12/06 06:40:01;;;;;;;25.15;15.48;;;;;;;4.57;83.80;97155.44;5005236;28;20255;-84
2020/12/06 06:42:29;;;;;;;27.55;15.93;;;;;;;4.59;83.89;97166.84;5020055;28;20180;-84
2020/12/06 06:45:01;;;;;;;32.80;16.95;;;;;;;4.37;84.77;97176.47;5026618;28;20201;-82
2020/12/06 06:47:28;;;;;;;29.63;18.02;;;;;;;4.48;85.02;97179.22;5006599;28;20276;-84
2020/12/06 06:49:56;;;;;;;29.52;16.10;;;;;;;4.47;84.13;97169.53;5000015;28;20214;-83
2020/12/06 06:52:27;;;;;;;29.77;16.92;;;;;;;4.31;84.85;97167.13;5014727;28;20263;-84
2020/12/06 06:54:58;;;;;;;29.60;17.80;;;;;;;4.29;85.63;97152.25;5014176;28;20234;-84
2020/12/06 06:57:28;;;;;;;27.75;18.30;;;;;;;4.24;86.12;97144.56;5021632;28;20202;-83
2020/12/06 06:59:56;;;;;;;26.92;16.20;;;;;;;4.35;86.50;97136.69;5019160;28;20221;-83
2020/12/06 07:02:41;;;;;;;29.65;18.05;;;;;;;4.48;85.48;97155.28;5014494;28;20244;-82
2020/12/06 07:05:14;;;;;;;26.10;16.60;;;;;;;4.63;84.94;97162.97;5023722;28;20236;-83
2020/12/06 07:07:45;;;;;;;27.55;16.88;;;;;;;4.61;84.41;97164.91;5012170;28;20241;-84
2020/12/06 07:10:16;;;;;;;31.20;16.90;;;;;;;4.61;83.82;97162.25;5008250;28;20232;-84
2020/12/06 07:12:46;;;;;;;27.70;15.98;;;;;;;4.58;84.40;97167.81;5024228;28;20212;-85
2020/12/06 07:15:13;;;;;;;30.40;17.15;;;;;;;4.55;84.73;97178.66;5020143;28;20251;-84
2020/12/06 07:17:40;;;;;;;31.52;17.70;;;;;;;4.49;84.86;97184.41;5012576;28;20221;-85
2020/12/06 07:20:08;;;;;;;31.95;18.75;;;;;;;4.42;85.11;97188.47;5009230;28;20231;-84
2020/12/06 07:22:35;;;;;;;31.98;18.17;;;;;;;4.38;86.16;97200.31;5011546;28;20226;-85
2020/12/06 07:25:03;;;;;;;30.45;18.40;;;;;;;4.48;85.69;97181.88;5009514;28;20683;-85
2020/12/06 07:27:29;;;;;;;32.67;17.27;;;;;;;4.47;85.09;97182.81;5027482;28;20192;-84
2020/12/06 07:29:55;;;;;;;30.88;18.08;;;;;;;4.36;85.91;97175.63;5015427;28;20221;-84
2020/12/06 07:32:24;;;;;;;32.38;18.88;;;;;;;4.47;85.38;97174.84;5014187;28;20301;-83
2020/12/06 07:34:51;;;;;;;33.25;19.27;;;;;;;4.53;85.40;97172.59;5031672;28;20218;-85
2020/12/06 07:37:18;;;;;;;31.40;17.48;;;;;;;4.50;85.38;97175.47;5029354;28;20225;-84
2020/12/06 07:39:46;;;;;;;30.90;17.20;;;;;;;4.49;85.12;97192.41;4999323;28;20214;-83
2020/12/06 07:42:19;;;;;;;31.85;18.75;;;;;;;4.43;85.41;97179.53;5027687;28;20221;-84
2020/12/06 07:44:54;;;;;;;31.35;17.95;;;;;;;4.44;85.51;97173.25;5015313;28;20213;-82
2020/12/06 07:47:21;;;;;;;30.52;17.60;;;;;;;4.50;85.33;97180.78;5022866;28;20221;-84
2020/12/06 07:49:55;;;;;;;32.22;18.95;;;;;;;4.47;86.00;97178.38;5015959;28;20229;-82
2020/12/06 07:52:27;;;;;;;33.92;19.13;;;;;;;4.52;85.54;97180.69;5026251;28;20274;-83
2020/12/06 07:54:53;;;;;;;34.65;20.40;;;;;;;4.58;85.57;97165.16;5029666;28;20613;-83
2020/12/06 07:57:39;;;;;;;29.35;18.80;;;;;;;4.53;84.75;97177.94;5021924;28;20197;-82
2020/12/06 08:00:08;;;;;;;28.88;17.23;;;;;;;4.45;85.50;97185.63;5039921;28;20317;-82
2020/12/06 08:02:41;;;;;;;30.10;17.70;;;;;;;4.57;85.73;97198.00;5035108;28;20205;-82
2020/12/06 08:05:17;;;;;;;30.63;18.27;;;;;;;4.57;85.50;97199.84;5014154;28;20229;-84
2020/12/06 08:07:46;;;;;;;25.08;15.70;;;;;;;4.54;84.33;97200.91;4993850;28;20236;-83
2020/12/06 08:10:15;;;;;;;26.27;17.00;;;;;;;4.52;84.30;97196.66;5014268;28;20285;-84
2020/12/06 08:12:44;;;;;;;30.17;16.85;;;;;;;4.62;85.15;97201.19;5018232;28;20184;-83
2020/12/06 08:15:12;;;;;;;26.83;16.52;;;;;;;4.75;84.56;97198.50;5012424;28;20214;-82
2020/12/06 08:17:49;;;;;;;29.20;17.55;;;;;;;4.75;84.94;97194.03;5014492;28;20313;-82
2020/12/06 08:20:21;;;;;;;27.58;15.75;;;;;;;4.72;84.23;97186.28;5019796;28;20204;-82
2020/12/06 08:22:56;;;;;;;19.50;13.63;;;;;;;4.73;83.96;97184.44;5031271;28;20342;-84
2020/12/06 08:25:28;;;;;;;22.77;13.70;;;;;;;4.60;85.03;97183.63;5033456;28;20249;-82
2020/12/06 08:27:56;;;;;;;23.48;14.02;;;;;;;4.76;85.08;97177.09;5025058;28;20224;-82
2020/12/06 08:30:27;;;;;;;27.02;15.20;;;;;;;4.60;86.03;97186.28;5017383;28;20214;-82
2020/12/06 08:32:57;;;;;;;21.77;15.20;;;;;;;4.80;85.53;97181.22;5009513;28;20222;-83
2020/12/06 08:35:43;;;;;;;21.27;14.50;;;;;;;4.75;84.48;97188.69;5029077;28;20233;-83
2020/12/06 08:38:30;;;;;;;34.08;20.60;;;;;;;4.83;83.94;97197.00;5012023;28;20264;-83
2020/12/06 08:41:10;;;;;;;23.60;14.55;;;;;;;4.77;84.57;97207.22;5012440;28;20230;-84
2020/12/06 08:43:39;;;;;;;27.95;15.02;;;;;;;4.77;85.65;97213.41;5029410;28;20221;-84
2020/12/06 08:46:09;;;;;;;22.15;13.70;;;;;;;4.78;84.73;97208.91;5036691;28;20229;-85
2020/12/06 08:48:49;;;;;;;20.50;12.98;;;;;;;4.72;85.22;97204.91;5015181;28;20213;-82
2020/12/06 08:51:37;;;;;;;23.83;12.98;;;;;;;4.80;85.27;97197.19;4997729;28;20245;-83
2020/12/06 08:54:05;;;;;;;20.58;12.63;;;;;;;4.66;86.26;97194.69;5010827;28;20232;-83
2020/12/06 08:56:42;;;;;;;15.85;10.98;;;;;;;4.93;85.36;97195.34;5019484;28;20209;-82
2020/12/06 08:59:22;;;;;;;18.63;11.55;;;;;;;5.06;83.63;97200.63;5011277;28;20210;-82
2020/12/06 09:01:54;;;;;;;16.83;10.80;;;;;;;4.95;83.79;97198.72;5033328;28;20213;-82
2020/12/06 09:04:23;;;;;;;19.15;12.65;;;;;;;4.85;84.71;97208.38;5015476;28;20210;-83
2020/12/06 09:06:53;;;;;;;19.70;13.65;;;;;;;5.16;84.45;97214.94;5013667;28;20230;-84
2020/12/06 09:09:19;;;;;;;19.60;11.80;;;;;;;4.99;83.87;97223.31;5018651;28;20193;-83
2020/12/06 09:11:45;;;;;;;22.73;13.55;;;;;;;4.93;85.07;97218.47;5015944;28;20225;-84
2020/12/06 09:14:11;;;;;;;21.50;13.45;;;;;;;4.99;84.78;97216.19;5016308;28;20240;-83
2020/12/06 09:16:38;;;;;;;22.63;14.90;;;;;;;4.96;85.39;97213.78;5020521;28;20221;-83
2020/12/06 09:19:04;;;;;;;21.02;12.93;;;;;;;4.95;85.83;97212.03;5007335;28;20285;-83
2020/12/06 09:21:30;;;;;;;25.92;15.18;;;;;;;4.82;86.64;97219.22;5030498;28;20328;-84
2020/12/06 09:23:58;;;;;;;28.70;15.57;;;;;;;4.69;86.70;97209.59;5008562;28;20197;-84
2020/12/06 09:26:24;;;;;;;26.08;14.40;;;;;;;4.82;87.67;97192.59;5011542;28;21217;-81
2020/12/06 09:28:50;;;;;;;23.42;14.13;;;;;;;5.01;87.41;97187.63;5011237;28;20208;-82
2020/12/06 09:31:20;;;;;;;25.65;15.20;;;;;;;5.24;86.32;97177.91;5009083;28;20226;-84
2020/12/06 09:33:46;;;;;;;19.30;12.75;;;;;;;5.33;86.05;97179.91;5012101;28;20671;-83
2020/12/06 09:36:12;;;;;;;21.10;12.95;;;;;;;5.46;84.12;97175.34;5033969;28;20227;-84
2020/12/06 09:38:38;;;;;;;21.02;12.73;;;;;;;5.38;83.97;97193.75;5015068;28;20290;-81
2020/12/06 09:41:06;;;;;;;17.92;12.15;;;;;;;5.40;82.86;97197.13;5009729;28;20256;-82
2020/12/06 09:43:32;;;;;;;20.40;12.90;;;;;;;5.47;83.41;97193.03;5014766;28;20237;-84
2020/12/06 09:45:59;;;;;;;19.45;12.50;;;;;;;5.42;83.64;97189.84;5025589;28;20221;-83
2020/12/06 09:48:25;;;;;;;21.55;13.35;;;;;;;5.40;83.24;97197.97;5021198;28;20300;-84
2020/12/06 09:50:51;;;;;;;22.38;12.52;;;;;;;5.32;84.24;97207.53;5001502;28;20234;-85
2020/12/06 09:53:20;;;;;;;19.08;12.65;;;;;;;5.45;83.08;97217.13;5000337;28;20225;-83
2020/12/06 09:55:47;;;;;;;21.15;12.48;;;;;;;5.36;82.92;97203.63;5002912;28;20300;-84
2020/12/06 09:58:13;;;;;;;22.75;13.45;;;;;;;5.25;83.63;97209.78;4998738;28;20225;-83
2020/12/06 10:00:41;;;;;;;25.25;14.55;;;;;;;5.21;83.47;97212.78;5008931;28;20213;-82
2020/12/06 10:03:07;;;;;;;21.83;13.13;;;;;;;5.20;84.56;97201.28;5032305;28;20221;-84
2020/12/06 10:05:34;;;;;;;24.75;16.60;;;;;;;5.36;84.92;97196.50;5006585;28;20225;-84
2020/12/06 10:08:01;;;;;;;20.83;12.60;;;;;;;5.39;84.35;97201.59;4997319;28;20238;-86
2020/12/06 10:10:28;;;;;;;20.67;12.32;;;;;;;5.52;81.70;97197.03;5015499;28;20317;-85
2020/12/06 10:12:55;;;;;;;18.50;13.35;;;;;;;5.53;82.68;97201.38;5017847;28;20253;-85
2020/12/06 10:15:22;;;;;;;18.00;11.45;;;;;;;5.51;82.29;97200.66;5008630;28;20233;-84
2020/12/06 10:17:48;;;;;;;21.45;12.75;;;;;;;5.46;82.59;97207.31;5023539;28;20236;-84
2020/12/06 10:20:14;;;;;;;20.70;12.70;;;;;;;5.47;82.72;97204.56;5008167;28;20287;-84
2020/12/06 10:22:41;;;;;;;25.73;14.85;;;;;;;5.53;81.81;97209.38;5020728;28;20319;-84
2020/12/06 10:25:07;;;;;;;22.75;14.68;;;;;;;5.58;82.39;97217.91;5007146;28;20256;-83
2020/12/06 10:27:33;;;;;;;24.33;16.23;;;;;;;5.45;82.30;97211.78;5001477;28;20192;-84
2020/12/06 10:30:03;;;;;;;22.27;13.23;;;;;;;5.37;83.14;97219.53;5013171;28;20595;-83
2020/12/06 10:32:29;;;;;;;24.05;13.98;;;;;;;5.34;83.13;97209.09;5008830;28;20217;-85
2020/12/06 10:34:56;;;;;;;23.52;14.10;;;;;;;5.38;83.91;97197.22;5009590;28;20315;-82
2020/12/06 10:37:24;;;;;;;20.55;12.85;;;;;;;5.44;83.01;97190.63;5020432;23;20230;-88
2020/12/06 10:39:51;;;;;;;24.17;15.65;;;;;;;5.36;83.54;97188.50;5001172;28;20661;-89
2020/12/06 10:42:18;;;;;;;24.83;14.27;;;;;;;5.46;83.49;97181.50;4998351;28;20862;-89
2020/12/06 10:44:45;;;;;;;22.75;14.35;;;;;;;5.64;83.10;97179.28;4997470;28;20225;-89
2020/12/06 10:47:12;;;;;;;23.05;13.95;;;;;;;5.53;82.13;97181.91;5001381;28;20671;-90
2020/12/06 10:49:42;;;;;;;26.30;15.45;;;;;;;5.41;83.80;97178.38;4991453;28;20237;-89
2020/12/06 10:52:10;;;;;;;23.33;14.18;;;;;;;5.71;82.93;97173.34;5007218;28;20193;-90
2020/12/06 10:54:38;;;;;;;23.27;14.75;;;;;;;5.77;82.59;97178.19;4986898;28;20703;-89
2020/12/06 10:57:07;;;;;;;25.23;14.70;;;;;;;5.84;82.29;97178.63;4967286;28;20237;-89
2020/12/06 10:59:35;;;;;;;24.38;15.43;;;;;;;5.85;82.07;97172.31;5032818;28;20222;-90
2020/12/06 11:02:03;;;;;;;20.98;14.15;;;;;;;5.91;81.67;97169.16;4998059;28;21933;-89
2020/12/06 11:04:29;;;;;;;28.25;16.23;;;;;;;5.91;81.89;97175.34;5006726;28;20685;-89
2020/12/06 11:06:57;;;;;;;27.33;15.80;;;;;;;5.78;81.70;97171.06;4986877;28;20256;-90
2020/12/06 11:09:26;;;;;;;23.75;14.57;;;;;;;5.66;82.07;97172.00;4987273;28;20233;-89
2020/12/06 11:11:54;;;;;;;25.27;15.65;;;;;;;5.68;82.59;97166.41;5034905;28;20222;-90
2020/12/06 11:14:21;;;;;;;27.00;17.10;;;;;;;5.78;82.51;97171.88;5012981;28;20214;-89
2020/12/06 11:16:49;;;;;;;23.58;15.45;;;;;;;5.78;82.00;97167.41;5013066;28;20202;-89
2020/12/06 11:19:16;;;;;;;25.70;13.73;;;;;;;5.60;82.62;97177.81;5004689;28;20225;-89
2020/12/06 11:21:42;;;;;;;23.70;14.48;;;;;;;5.67;83.01;97168.38;4998653;28;20274;-89
2020/12/06 11:24:09;;;;;;;25.83;15.05;;;;;;;5.92;83.41;97185.06;5003877;28;20210;-89
2020/12/06 11:26:35;;;;;;;26.20;14.90;;;;;;;5.97;82.18;97172.19;5036539;28;20222;-90
2020/12/06 11:29:03;;;;;;;20.92;13.93;;;;;;;6.09;82.07;97188.09;5004890;28;20186;-89
2020/12/06 11:31:29;;;;;;;25.40;15.68;;;;;;;6.16;82.03;97189.31;5016484;28;20708;-89
2020/12/06 11:33:56;;;;;;;23.08;14.88;;;;;;;6.12;81.05;97192.34;4999096;28;20269;-89
2020/12/06 11:36:23;;;;;;;22.95;14.68;;;;;;;6.12;81.66;97179.00;4993461;28;20263;-90
2020/12/06 11:38:49;;;;;;;22.60;14.00;;;;;;;5.93;81.55;97171.59;4993487;28;20226;-90
2020/12/06 11:41:16;;;;;;;22.70;14.48;;;;;;;5.85;82.62;97174.97;4992131;28;20201;-83
2020/12/06 11:43:42;;;;;;;27.02;15.80;;;;;;;5.95;82.29;97176.81;5004216;28;20273;-83
2020/12/06 11:46:08;;;;;;;23.10;14.00;;;;;;;6.08;81.61;97180.22;4991429;28;20224;-80
2020/12/06 11:48:34;;;;;;;22.70;15.10;;;;;;;5.93;81.13;97179.59;4980319;28;20265;-87
2020/12/06 11:51:33;;;;;;;25.08;15.93;;;;;;;6.03;82.29;97185.03;5018825;28;20241;-87
2020/12/06 11:53:59;;;;;;;24.15;13.75;;;;;;;6.18;82.31;97168.69;5010225;28;20234;-88
2020/12/06 11:56:25;;;;;;;28.55;15.18;;;;;;;6.32;80.84;97159.59;5008477;28;20225;-89
2020/12/06 11:58:52;;;;;;;24.67;16.13;;;;;;;6.54;81.10;97159.56;5003931;28;20289;-88
2020/12/06 12:01:19;;;;;;;24.65;16.10;;;;;;;6.58;80.37;97166.38;5000344;28;20206;-90
2020/12/06 12:03:45;;;;;;;23.77;15.57;;;;;;;6.61;80.78;97164.28;4999875;28;20266;-90
2020/12/06 12:06:12;;;;;;;25.17;15.63;;;;;;;6.69;79.91;97161.00;5012637;28;20237;-87
2020/12/06 12:08:38;;;;;;;22.92;15.60;;;;;;;6.73;79.33;97173.97;5014818;28;20222;-87
2020/12/06 12:11:10;;;;;;;24.88;15.73;;;;;;;6.74;79.79;97180.16;4974631;28;20209;-89
2020/12/06 12:13:37;;;;;;;21.50;14.18;;;;;;;6.62;79.73;97183.84;5003883;28;20213;-88
2020/12/06 12:16:04;;;;;;;23.45;15.60;;;;;;;6.71;80.29;97183.09;5002878;28;20235;-87
2020/12/06 12:18:31;;;;;;;24.67;14.18;;;;;;;6.61;79.58;97184.78;4994739;28;20217;-89
2020/12/06 12:20:57;;;;;;;24.63;16.27;;;;;;;6.58;80.45;97179.72;5004014;28;20300;-89
2020/12/06 12:23:24;;;;;;;21.15;14.18;;;;;;;6.66;80.52;97182.59;4992029;28;20232;-87
2020/12/06 12:25:50;;;;;;;27.45;15.27;;;;;;;6.62;81.78;97189.19;5033248;28;20202;-87
2020/12/06 12:28:17;;;;;;;23.23;15.15;;;;;;;6.78;80.31;97193.16;5017364;28;20277;-90
2020/12/06 12:30:44;;;;;;;19.00;12.55;;;;;;;6.79;79.44;97183.31;5029718;28;20230;-88
2020/12/06 12:33:10;;;;;;;18.23;11.20;;;;;;;6.73;79.64;97168.66;5001703;28;20222;-87
2020/12/06 12:35:37;;;;;;;19.45;12.75;;;;;;;6.70;79.16;97176.06;4994516;28;20470;-87
2020/12/06 12:38:03;;;;;;;21.10;14.27;;;;;;;6.79;79.68;97165.47;4998456;28;20234;-88
2020/12/06 12:40:29;;;;;;;18.92;12.45;;;;;;;6.88;79.25;97162.03;5002146;28;20237;-88
2020/12/06 12:42:55;;;;;;;17.70;12.45;;;;;;;7.00;79.51;97154.84;4988658;28;20226;-87
2020/12/06 12:45:22;;;;;;;16.77;11.60;;;;;;;7.14;78.24;97157.25;4990083;28;20230;-87
2020/12/06 12:47:52;;;;;;;18.75;13.48;;;;;;;7.03;78.86;97168.81;5033390;28;20225;-88
2020/12/06 12:50:20;;;;;;;17.08;11.77;;;;;;;7.01;78.29;97172.59;4998096;28;20375;-89
2020/12/06 12:52:47;;;;;;;15.98;11.35;;;;;;;6.94;79.72;97172.22;5017659;28;20202;-89
2020/12/06 12:55:15;;;;;;;16.80;11.75;;;;;;;6.94;78.82;97169.56;5014322;28;20264;-88
2020/12/06 12:57:42;;;;;;;17.20;12.10;;;;;;;6.89;79.55;97168.25;5021089;28;20233;-88
2020/12/06 13:00:12;;;;;;;15.40;10.70;;;;;;;6.82;78.91;97159.03;4993292;28;20253;-88
2020/12/06 13:02:39;;;;;;;16.10;11.70;;;;;;;6.80;79.24;97145.81;4990998;28;20226;-87
2020/12/06 13:05:06;;;;;;;16.40;11.55;;;;;;;6.83;79.06;97142.03;5017225;28;20189;-88
2020/12/06 13:07:33;;;;;;;19.13;12.55;;;;;;;6.78;79.87;97144.22;4995885;28;20250;-87
2020/12/06 13:10:00;;;;;;;20.25;13.55;;;;;;;6.76;80.29;97130.16;4948428;28;20250;-87
2020/12/06 13:12:26;;;;;;;15.25;12.10;;;;;;;6.79;80.27;97124.56;4982187;28;20294;-88
2020/12/06 13:14:53;;;;;;;18.90;12.20;;;;;;;6.81;80.10;97127.94;4982751;28;20249;-88
2020/12/06 13:17:26;;;;;;;16.35;12.20;;;;;;;6.66;80.56;97134.53;4989156;28;20229;-88
2020/12/06 13:19:58;;;;;;;18.05;12.75;;;;;;;6.64;81.04;97126.66;5002478;28;20198;-87
2020/12/06 13:22:39;;;;;;;20.05;13.70;;;;;;;6.69;80.55;97119.13;5012763;28;20236;-90
2020/12/06 13:25:05;;;;;;;19.95;13.60;;;;;;;6.60;80.84;97129.69;5027713;28;20269;-91
2020/12/06 13:27:35;;;;;;;18.88;13.30;;;;;;;6.59;80.70;97139.56;4980713;28;20261;-88
2020/12/06 13:30:02;;;;;;;18.70;13.55;;;;;;;6.45;80.68;97138.97;4988709;28;20234;-88